Time,TemperatureF,DewpointF,PressureIn,WindDirection,WindDirectionDegrees,WindSpeedMPH,WindSpeedGustMPH,Humidity,HourlyPrecipIn,Conditions,Clouds,dailyrainin,SoftwareType,DateUTC
2013-01-23 00:02:00,44.4,34.1,29.88,SE,135,0.0,1.5,67,0.00,,,0.00,WUHU216HW,2013-01-22 23:02:00,
2013-01-23 00:07:00,44.4,34.1,29.88,North,0,0.0,0.0,67,0.00,,,0.00,WUHU216HW,2013-01-22 23:07:00,
2013-01-23 00:12:00,44.2,33.5,29.88,North,0,1.5,3.8,66,0.00,,,0.00,WUHU216HW,2013-01-22 23:12:00,
2013-01-23 00:17:00,43.5,31.7,29.88,NNE,27,1.9,3.8,64,0.00,,,0.00,WUHU216HW,2013-01-22 23:17:00,
2013-01-23 00:22:00,43.1,31.3,29.88,SSW,203,1.3,2.2,63,0.00,,,0.00,WUHU216HW,2013-01-22 23:22:00,
2013-01-23 00:27:00,42.9,31.1,29.88,SE,135,0.0,1.3,63,0.00,,,0.00,WUHU216HW,2013-01-22 23:27:00,
2013-01-23 00:32:00,43.1,30.2,29.88,SSW,203,5.1,6.7,60,0.00,,,0.00,WUHU216HW,2013-01-22 23:32:00,
2013-01-23 00:37:00,43.5,30.1,29.88,SW,225,4.1,6.7,59,0.00,,,0.00,WUHU216HW,2013-01-22 23:37:00,
2013-01-23 00:42:00,43.5,30.1,29.88,SW,218,2.5,5.1,59,0.00,,,0.00,WUHU216HW,2013-01-22 23:42:00,
2013-01-23 00:47:00,43.5,30.1,29.88,SW,225,2.9,3.8,59,0.00,,,0.00,WUHU216HW,2013-01-22 23:47:00,
2013-01-23 00:52:00,43.5,30.1,29.88,SW,225,1.5,3.3,59,0.00,,,0.00,WUHU216HW,2013-01-22 23:52:00,
2013-01-23 00:58:00,43.5,30.1,29.88,SW,225,3.1,3.3,59,0.00,,,0.00,WUHU216HW,2013-01-22 23:58:00,
2013-01-23 01:03:00,43.5,30.1,29.88,SSW,203,0.0,3.1,59,0.00,,,0.00,WUHU216HW,2013-01-23 00:03:00,
2013-01-23 01:08:00,43.5,30.5,29.88,North,0,0.0,2.6,59,0.00,,,0.00,WUHU216HW,2013-01-23 00:08:00,
2013-01-23 01:13:00,42.9,30.7,29.88,North,0,0.0,2.4,62,0.00,,,0.00,WUHU216HW,2013-01-23 00:13:00,
2013-01-23 01:18:00,42.6,30.0,29.88,East,90,1.3,2.4,61,0.00,,,0.00,WUHU216HW,2013-01-23 00:18:00,
2013-01-23 01:23:00,42.4,29.0,29.88,NE,45,0.0,3.1,59,0.00,,,0.00,WUHU216HW,2013-01-23 00:23:00,
2013-01-23 01:28:00,42.2,28.4,29.88,NNW,338,2.2,3.1,58,0.00,,,0.00,WUHU216HW,2013-01-23 00:28:00,
2013-01-23 01:33:00,41.7,27.9,29.89,WNW,293,0.0,2.9,58,0.00,,,0.00,WUHU216HW,2013-01-23 00:33:00,
2013-01-23 01:38:00,41.5,27.8,29.88,SW,225,0.0,2.2,58,0.00,,,0.00,WUHU216HW,2013-01-23 00:38:00,
2013-01-23 01:43:00,41.9,27.6,29.89,WSW,248,0.8,1.3,57,0.00,,,0.00,WUHU216HW,2013-01-23 00:43:00,
2013-01-23 01:48:00,41.9,27.6,29.89,WSW,248,0.0,1.5,57,0.00,,,0.00,WUHU216HW,2013-01-23 00:48:00,
2013-01-23 01:53:00,42.0,27.8,29.89,ESE,113,1.3,1.5,57,0.00,,,0.00,WUHU216HW,2013-01-23 00:53:00,
2013-01-23 01:58:00,42.0,27.8,29.89,East,90,0.0,1.3,57,0.00,,,0.00,WUHU216HW,2013-01-23 00:58:00,
2013-01-23 02:03:00,42.2,28.0,29.89,SSW,203,1.1,1.3,57,0.00,,,0.00,WUHU216HW,2013-01-23 01:03:00,
2013-01-23 02:08:00,42.4,28.2,29.89,East,90,0.8,1.1,57,0.00,,,0.00,WUHU216HW,2013-01-23 01:08:00,
2013-01-23 02:13:00,42.2,27.5,29.89,ENE,68,1.7,1.7,56,0.00,,,0.00,WUHU216HW,2013-01-23 01:13:00,
2013-01-23 02:18:00,42.0,27.8,29.89,ENE,68,0.0,1.7,57,0.00,,,0.00,WUHU216HW,2013-01-23 01:18:00,
2013-01-23 02:23:00,41.9,27.6,29.89,ENE,68,0.6,0.6,57,0.00,,,0.00,WUHU216HW,2013-01-23 01:23:00,
2013-01-23 02:28:00,41.7,27.5,29.89,NW,315,0.8,0.8,57,0.00,,,0.00,WUHU216HW,2013-01-23 01:28:00,
2013-01-23 02:33:00,41.5,27.3,29.89,NNW,338,0.0,0.8,57,0.00,,,0.00,WUHU216HW,2013-01-23 01:33:00,
2013-01-23 02:38:00,41.3,27.1,29.89,ESE,113,0.0,0.8,57,0.00,,,0.00,WUHU216HW,2013-01-23 01:38:00,
2013-01-23 02:43:00,41.1,26.5,29.90,SSW,203,0.0,0.0,56,0.00,,,0.00,WUHU216HW,2013-01-23 01:43:00,
2013-01-23 02:48:00,41.5,26.9,29.90,SE,135,0.0,0.0,56,0.00,,,0.00,WUHU216HW,2013-01-23 01:48:00,
2013-01-23 02:53:00,41.7,26.4,29.90,SSW,203,0.0,0.0,55,0.00,,,0.00,WUHU216HW,2013-01-23 01:53:00,
2013-01-23 02:58:00,41.7,26.6,29.90,SSW,203,0.0,0.0,55,0.00,,,0.00,WUHU216HW,2013-01-23 01:58:00,
2013-01-23 03:03:00,41.7,26.6,29.90,NNW,338,0.0,1.3,55,0.00,,,0.00,WUHU216HW,2013-01-23 02:03:00,
2013-01-23 03:08:00,41.5,26.4,29.90,ENE,68,0.0,1.3,55,0.00,,,0.00,WUHU216HW,2013-01-23 02:08:00,
2013-01-23 03:13:00,41.5,26.0,29.90,NE,45,0.0,1.3,54,0.00,,,0.00,WUHU216HW,2013-01-23 02:13:00,
2013-01-23 03:18:00,41.7,26.2,29.90,ENE,68,0.0,1.3,54,0.00,,,0.00,WUHU216HW,2013-01-23 02:18:00,
2013-01-23 03:23:00,42.0,26.1,29.90,NE,54,1.4,1.7,53,0.00,,,0.00,WUHU216HW,2013-01-23 02:23:00,
2013-01-23 03:28:00,42.2,26.7,29.90,NNE,23,0.0,1.7,54,0.00,,,0.00,WUHU216HW,2013-01-23 02:28:00,
2013-01-23 03:33:00,42.4,27.3,29.90,NNE,23,0.6,0.6,55,0.00,,,0.00,WUHU216HW,2013-01-23 02:33:00,
2013-01-23 03:38:00,42.6,27.9,29.90,NNE,23,0.0,1.7,56,0.00,,,0.00,WUHU216HW,2013-01-23 02:38:00,
2013-01-23 03:43:00,42.4,28.2,29.90,NE,45,0.0,1.7,57,0.00,,,0.00,WUHU216HW,2013-01-23 02:43:00,
2013-01-23 03:48:00,42.0,28.3,29.90,NNE,23,0.0,1.5,58,0.00,,,0.00,WUHU216HW,2013-01-23 02:48:00,
2013-01-23 03:53:00,41.7,28.4,29.90,SSW,203,1.5,1.5,59,0.00,,,0.00,WUHU216HW,2013-01-23 02:53:00,
2013-01-23 03:58:00,41.7,27.9,29.89,South,180,2.1,2.4,58,0.00,,,0.00,WUHU216HW,2013-01-23 02:58:00,
2013-01-23 04:03:00,42.0,27.8,29.89,SSW,203,2.0,2.4,57,0.00,,,0.00,WUHU216HW,2013-01-23 03:03:00,
2013-01-23 04:08:00,42.4,28.2,29.90,SSE,158,1.3,2.2,57,0.00,,,0.00,WUHU216HW,2013-01-23 03:08:00,
2013-01-23 04:13:00,42.4,28.6,29.90,SSE,158,0.8,1.3,58,0.00,,,0.00,WUHU216HW,2013-01-23 03:13:00,
2013-01-23 04:18:00,42.6,28.7,29.89,SSE,158,0.0,1.7,58,0.00,,,0.00,WUHU216HW,2013-01-23 03:18:00,
2013-01-23 04:23:00,42.9,29.5,29.89,SSE,158,0.0,1.7,59,0.00,,,0.00,WUHU216HW,2013-01-23 03:23:00,
2013-01-23 04:28:00,42.6,30.8,29.89,NNE,23,1.1,1.5,63,0.00,,,0.00,WUHU216HW,2013-01-23 03:28:00,
2013-01-23 04:33:00,42.0,29.9,29.89,NNE,23,0.0,1.5,62,0.00,,,0.00,WUHU216HW,2013-01-23 03:33:00,
2013-01-23 04:38:00,42.0,29.5,29.89,NNE,23,0.0,0.0,61,0.00,,,0.00,WUHU216HW,2013-01-23 03:38:00,
2013-01-23 04:43:00,41.9,29.0,29.89,ESE,113,0.0,0.0,60,0.00,,,0.00,WUHU216HW,2013-01-23 03:43:00,
2013-01-23 04:48:00,42.0,28.9,29.89,ESE,113,1.3,1.3,59,0.00,,,0.00,WUHU216HW,2013-01-23 03:48:00,
2013-01-23 04:53:00,42.4,28.6,29.89,NNE,23,0.6,1.3,58,0.00,,,0.00,WUHU216HW,2013-01-23 03:53:00,
2013-01-23 04:58:00,42.4,29.0,29.89,SW,225,0.0,0.6,59,0.00,,,0.00,WUHU216HW,2013-01-23 03:58:00,
2013-01-23 05:03:00,42.4,29.0,29.89,SSE,158,0.0,0.0,59,0.00,,,0.00,WUHU216HW,2013-01-23 04:03:00,
2013-01-23 05:08:00,42.4,28.6,29.89,East,90,0.8,2.2,58,0.00,,,0.00,WUHU216HW,2013-01-23 04:08:00,
2013-01-23 05:13:00,42.6,28.7,29.89,ENE,68,1.7,2.2,58,0.00,,,0.00,WUHU216HW,2013-01-23 04:13:00,
2013-01-23 05:18:00,42.6,29.2,29.89,West,270,0.0,2.2,59,0.00,,,0.00,WUHU216HW,2013-01-23 04:18:00,
2013-01-23 05:23:00,42.6,28.7,29.88,East,90,0.0,2.2,58,0.00,,,0.00,WUHU216HW,2013-01-23 04:23:00,
2013-01-23 05:28:00,42.4,29.0,29.89,West,270,2.0,2.2,59,0.00,,,0.00,WUHU216HW,2013-01-23 04:28:00,
2013-01-23 05:33:00,42.0,29.1,29.89,ESE,113,1.3,2.0,60,0.00,,,0.00,WUHU216HW,2013-01-23 04:33:00,
2013-01-23 05:38:00,42.0,28.7,29.89,ESE,113,1.3,1.5,59,0.00,,,0.00,WUHU216HW,2013-01-23 04:38:00,
2013-01-23 05:43:00,42.4,29.0,29.89,ESE,113,1.5,1.5,59,0.00,,,0.00,WUHU216HW,2013-01-23 04:43:00,
2013-01-23 05:48:00,42.4,29.0,29.89,WSW,248,0.8,1.5,59,0.00,,,0.00,WUHU216HW,2013-01-23 04:48:00,
2013-01-23 05:53:00,42.6,29.2,29.89,WSW,248,0.0,0.8,59,0.00,,,0.00,WUHU216HW,2013-01-23 04:53:00,
2013-01-23 05:58:00,42.6,29.6,29.89,ESE,113,1.5,1.5,60,0.00,,,0.00,WUHU216HW,2013-01-23 04:58:00,
2013-01-23 06:00:00,42.6,29.2,29.89,East,90,1.5,1.5,59,0.00,,,0.00,WUHU216HW,2013-01-23 05:00:00,
2013-01-23 06:03:00,42.6,29.2,29.89,ESE,113,1.5,1.5,59,0.00,,,0.00,WUHU216HW,2013-01-23 05:03:00,
2013-01-23 06:08:00,42.6,29.2,29.89,ESE,113,2.2,2.2,59,0.00,,,0.00,WUHU216HW,2013-01-23 05:08:00,
2013-01-23 06:13:00,42.6,29.6,29.89,East,98,1.5,2.2,60,0.00,,,0.00,WUHU216HW,2013-01-23 05:13:00,
2013-01-23 06:18:00,42.6,29.8,29.89,ESE,113,0.0,2.2,61,0.00,,,0.00,WUHU216HW,2013-01-23 05:18:00,
2013-01-23 06:23:00,42.4,29.5,29.89,East,90,0.0,0.0,60,0.00,,,0.00,WUHU216HW,2013-01-23 05:23:00,
2013-01-23 06:28:00,42.4,29.5,29.89,East,90,2.2,2.2,60,0.00,,,0.00,WUHU216HW,2013-01-23 05:28:00,
2013-01-23 06:33:00,42.6,29.6,29.89,East,81,1.6,2.9,60,0.00,,,0.00,WUHU216HW,2013-01-23 05:33:00,
2013-01-23 06:38:00,42.6,30.0,29.89,ENE,68,1.1,2.9,62,0.00,,,0.00,WUHU216HW,2013-01-23 05:38:00,
2013-01-23 06:43:00,42.6,30.8,29.89,ENE,68,0.0,1.5,63,0.00,,,0.00,WUHU216HW,2013-01-23 05:43:00,
2013-01-23 06:48:00,42.6,30.8,29.89,North,0,0.0,1.3,63,0.00,,,0.00,WUHU216HW,2013-01-23 05:48:00,
2013-01-23 06:53:00,42.6,30.8,29.89,ENE,68,0.0,0.0,63,0.00,,,0.00,WUHU216HW,2013-01-23 05:53:00,
2013-01-23 06:58:00,42.8,31.1,29.89,East,90,1.1,2.2,63,0.00,,,0.00,WUHU216HW,2013-01-23 05:58:00,
2013-01-23 07:03:00,42.6,31.2,29.89,NW,315,0.0,2.2,64,0.00,,,0.00,WUHU216HW,2013-01-23 06:03:00,
2013-01-23 07:08:00,42.4,31.4,29.89,SSE,158,0.0,0.6,65,0.00,,,0.00,WUHU216HW,2013-01-23 06:08:00,
2013-01-23 07:13:00,41.9,30.5,29.89,SSW,203,0.0,0.8,64,0.00,,,0.00,WUHU216HW,2013-01-23 06:13:00,
2013-01-23 07:18:00,41.5,29.8,29.89,NNE,23,0.0,0.8,63,0.00,,,0.00,WUHU216HW,2013-01-23 06:18:00,
2013-01-23 07:23:00,41.5,29.0,29.89,North,0,0.0,0.6,61,0.00,,,0.00,WUHU216HW,2013-01-23 06:23:00,
2013-01-23 07:28:00,41.3,28.9,29.89,East,90,2.9,2.9,61,0.00,,,0.00,WUHU216HW,2013-01-23 06:28:00,
2013-01-23 07:33:00,41.5,27.8,29.89,ENE,68,3.1,3.1,58,0.00,,,0.00,WUHU216HW,2013-01-23 06:33:00,
2013-01-23 07:38:00,42.4,28.6,29.89,ESE,113,1.3,3.3,58,0.00,,,0.00,WUHU216HW,2013-01-23 06:38:00,
2013-01-23 07:43:00,42.6,30.0,29.89,ESE,120,2.2,3.3,61,0.00,,,0.00,WUHU216HW,2013-01-23 06:43:00,
2013-01-23 07:48:00,43.5,31.7,29.89,ENE,68,0.0,3.3,63,0.00,,,0.00,WUHU216HW,2013-01-23 06:48:00,
2013-01-23 07:53:00,43.7,32.2,29.89,South,180,0.0,2.0,64,0.00,,,0.00,WUHU216HW,2013-01-23 06:53:00,
2013-01-23 07:58:00,44.2,33.5,29.89,SSW,203,0.0,1.3,66,0.00,,,0.00,WUHU216HW,2013-01-23 06:58:00,
2013-01-23 08:03:00,44.2,33.9,29.89,SW,225,0.0,2.2,67,0.00,,,0.00,WUHU216HW,2013-01-23 07:03:00,
2013-01-23 08:08:00,44.0,34.1,29.89,WSW,248,0.0,2.2,68,0.00,,,0.00,WUHU216HW,2013-01-23 07:08:00,
2013-01-23 08:13:00,43.8,33.6,29.89,WSW,248,0.0,0.0,67,0.00,,,0.00,WUHU216HW,2013-01-23 07:13:00,
2013-01-23 08:18:00,44.2,33.9,29.89,WSW,248,0.0,1.1,67,0.00,,,0.00,WUHU216HW,2013-01-23 07:18:00,
2013-01-23 08:23:00,45.5,34.3,29.89,SE,135,1.7,3.8,65,0.00,,,0.00,WUHU216HW,2013-01-23 07:23:00,
2013-01-23 08:28:00,48.0,38.8,29.89,SSE,158,3.7,5.3,71,0.00,,,0.00,WUHU216HW,2013-01-23 07:28:00,
2013-01-23 08:33:00,49.2,41.6,29.89,SSW,203,6.7,8.2,75,0.00,,,0.00,WUHU216HW,2013-01-23 07:33:00,
2013-01-23 08:38:00,50.3,42.7,29.89,SSE,168,4.1,8.2,75,0.00,,,0.00,WUHU216HW,2013-01-23 07:38:00,
2013-01-23 08:43:00,50.7,42.7,29.89,South,180,4.0,7.1,74,0.00,,,0.00,WUHU216HW,2013-01-23 07:43:00,
2013-01-23 08:48:00,50.9,42.9,29.89,South,173,4.0,7.1,74,0.00,,,0.00,WUHU216HW,2013-01-23 07:48:00,
2013-01-23 08:53:00,51.2,43.2,29.89,South,180,6.4,8.5,74,0.00,,,0.00,WUHU216HW,2013-01-23 07:53:00,
2013-01-23 08:58:00,51.2,42.9,29.89,South,180,3.8,8.5,73,0.00,,,0.00,WUHU216HW,2013-01-23 07:58:00,
2013-01-23 09:03:00,51.4,43.1,29.89,SSE,158,2.4,10.2,73,0.00,,,0.00,WUHU216HW,2013-01-23 08:03:00,
2013-01-23 09:08:00,51.4,43.1,29.89,South,169,4.2,10.2,73,0.00,,,0.00,WUHU216HW,2013-01-23 08:08:00,
2013-01-23 09:13:00,51.6,42.9,29.89,SE,135,9.1,9.1,72,0.00,,,0.00,WUHU216HW,2013-01-23 08:13:00,
2013-01-23 09:18:00,51.8,43.1,29.89,SSE,158,8.5,9.1,72,0.00,,,0.00,WUHU216HW,2013-01-23 08:18:00,
2013-01-23 09:23:00,51.8,43.1,29.89,SSE,158,6.0,8.5,72,0.00,,,0.00,WUHU216HW,2013-01-23 08:23:00,
2013-01-23 09:28:00,51.8,43.1,29.89,South,180,7.6,9.8,72,0.00,,,0.00,WUHU216HW,2013-01-23 08:28:00,
2013-01-23 09:33:00,51.8,43.4,29.89,SSE,165,2.2,9.8,73,0.00,,,0.00,WUHU216HW,2013-01-23 08:33:00,
2013-01-23 09:38:00,51.9,43.2,29.89,SSE,168,3.3,6.4,72,0.00,,,0.00,WUHU216HW,2013-01-23 08:38:00,
2013-01-23 09:43:00,51.9,43.2,29.89,South,180,8.7,8.7,72,0.00,,,0.00,WUHU216HW,2013-01-23 08:43:00,
2013-01-23 09:48:00,51.9,43.2,29.89,SE,145,9.4,10.9,72,0.00,,,0.00,WUHU216HW,2013-01-23 08:48:00,
2013-01-23 09:53:00,51.9,43.2,29.89,ESE,113,6.0,10.9,72,0.00,,,0.00,WUHU216HW,2013-01-23 08:53:00,
2013-01-23 09:58:00,53.2,44.0,29.89,SSW,203,7.6,7.6,71,0.00,,,0.00,WUHU216HW,2013-01-23 08:58:00,
2013-01-23 10:03:00,53.4,43.4,29.90,SSE,158,4.9,9.8,69,0.00,,,0.00,WUHU216HW,2013-01-23 09:03:00,
2013-01-23 10:08:00,52.8,42.9,29.90,SSE,158,8.7,9.8,69,0.00,,,0.00,WUHU216HW,2013-01-23 09:08:00,
2013-01-23 10:13:00,53.4,43.4,29.90,SSW,203,5.8,9.3,69,0.00,,,0.00,WUHU216HW,2013-01-23 09:13:00,
2013-01-23 10:18:00,53.7,43.4,29.90,South,191,5.7,9.8,68,0.00,,,0.00,WUHU216HW,2013-01-23 09:18:00,
2013-01-23 10:23:00,53.7,43.0,29.90,South,177,6.6,9.8,67,0.00,,,0.00,WUHU216HW,2013-01-23 09:23:00,
2013-01-23 10:28:00,54.6,43.5,29.89,ESE,102,3.4,8.0,66,0.00,,,0.00,WUHU216HW,2013-01-23 09:28:00,
2013-01-23 10:33:00,55.7,43.3,29.89,SSE,150,2.5,6.9,63,0.00,,,0.00,WUHU216HW,2013-01-23 09:33:00,
2013-01-23 10:38:00,54.8,42.4,29.89,South,188,5.9,8.0,63,0.00,,,0.00,WUHU216HW,2013-01-23 09:38:00,
2013-01-23 10:43:00,55.2,42.7,29.89,South,187,6.5,9.1,63,0.00,,,0.00,WUHU216HW,2013-01-23 09:43:00,
2013-01-23 10:48:00,55.9,43.0,29.89,SSE,158,6.4,9.1,62,0.00,,,0.00,WUHU216HW,2013-01-23 09:48:00,
2013-01-23 10:53:00,55.9,42.6,29.89,SE,143,7.4,9.8,61,0.00,,,0.00,WUHU216HW,2013-01-23 09:53:00,
2013-01-23 10:58:00,55.9,43.0,29.89,SE,135,6.4,9.8,62,0.00,,,0.00,WUHU216HW,2013-01-23 09:58:00,
2013-01-23 11:03:00,55.9,42.6,29.88,ESE,102,3.2,13.4,61,0.00,,,0.00,WUHU216HW,2013-01-23 10:03:00,
2013-01-23 11:08:00,55.7,42.4,29.88,East,90,5.5,13.4,61,0.00,,,0.00,WUHU216HW,2013-01-23 10:08:00,
2013-01-23 11:13:00,56.1,42.8,29.87,ENE,68,1.1,7.1,61,0.00,,,0.00,WUHU216HW,2013-01-23 10:13:00,
2013-01-23 11:18:00,56.1,42.8,29.88,WSW,248,2.2,7.1,61,0.00,,,0.00,WUHU216HW,2013-01-23 10:18:00,
2013-01-23 11:23:00,55.2,42.3,29.88,WSW,248,6.2,6.2,62,0.00,,,0.00,WUHU216HW,2013-01-23 10:23:00,
2013-01-23 11:28:00,54.8,42.8,29.88,South,180,5.8,6.2,64,0.00,,,0.00,WUHU216HW,2013-01-23 10:28:00,
2013-01-23 11:33:00,54.3,42.3,29.87,SE,139,6.3,10.2,64,0.00,,,0.00,WUHU216HW,2013-01-23 10:33:00,
2013-01-23 11:38:00,54.5,42.5,29.87,SE,127,4.4,10.2,64,0.00,,,0.00,WUHU216HW,2013-01-23 10:38:00,
2013-01-23 11:43:00,54.5,42.5,29.86,SE,135,6.2,13.8,65,0.00,,,0.00,WUHU216HW,2013-01-23 10:43:00,
2013-01-23 11:48:00,54.3,42.7,29.86,East,90,4.0,13.8,65,0.00,,,0.00,WUHU216HW,2013-01-23 10:48:00,
2013-01-23 11:53:00,54.5,42.9,29.86,SSE,158,5.3,11.1,65,0.00,,,0.00,WUHU216HW,2013-01-23 10:53:00,
2013-01-23 11:58:00,55.2,43.1,29.86,South,180,4.2,6.7,64,0.00,,,0.00,WUHU216HW,2013-01-23 10:58:00,
2013-01-23 12:03:00,56.1,42.8,29.86,ENE,74,6.3,9.1,61,0.00,,,0.00,WUHU216HW,2013-01-23 11:03:00,
2013-01-23 12:09:00,56.8,43.9,29.85,SSE,158,6.9,9.1,62,0.00,,,0.00,WUHU216HW,2013-01-23 11:09:00,
2013-01-23 12:14:00,57.0,43.7,29.85,SSE,168,9.0,9.3,61,0.00,,,0.00,WUHU216HW,2013-01-23 11:14:00,
2013-01-23 12:19:00,56.1,42.8,29.84,ESE,110,7.4,9.3,61,0.00,,,0.00,WUHU216HW,2013-01-23 11:19:00,
2013-01-23 12:24:00,55.7,43.4,29.84,SSE,148,4.4,8.9,63,0.00,,,0.00,WUHU216HW,2013-01-23 11:24:00,
2013-01-23 12:29:00,55.7,43.3,29.84,SSE,158,14.7,16.5,63,0.00,,,0.00,WUHU216HW,2013-01-23 11:29:00,
2013-01-23 12:34:00,55.9,43.4,29.84,SE,135,6.2,16.5,63,0.00,,,0.00,WUHU216HW,2013-01-23 11:34:00,
2013-01-23 12:39:00,56.3,43.4,29.84,SSE,158,11.1,11.1,62,0.00,,,0.00,WUHU216HW,2013-01-23 11:39:00,
2013-01-23 12:44:00,55.5,42.4,29.84,SSE,165,7.4,11.1,61,0.00,,,0.00,WUHU216HW,2013-01-23 11:44:00,
2013-01-23 12:49:00,55.5,42.7,29.84,East,98,4.7,9.6,62,0.00,,,0.00,WUHU216HW,2013-01-23 11:49:00,
2013-01-23 12:54:00,55.2,41.9,29.83,SE,126,5.2,10.5,61,0.00,,,0.00,WUHU216HW,2013-01-23 11:54:00,
2013-01-23 12:59:00,55.2,41.9,29.82,South,180,8.9,10.5,61,0.00,,,0.00,WUHU216HW,2013-01-23 11:59:00,
2013-01-23 13:04:00,55.0,41.3,29.82,SE,138,6.9,9.8,60,0.00,,,0.00,WUHU216HW,2013-01-23 12:04:00,
2013-01-23 13:09:00,54.8,41.6,29.82,SSE,158,4.0,9.8,61,0.00,,,0.00,WUHU216HW,2013-01-23 12:09:00,
2013-01-23 13:14:00,54.6,41.4,29.82,SSE,162,4.0,9.1,61,0.00,,,0.00,WUHU216HW,2013-01-23 12:14:00,
2013-01-23 13:19:00,54.6,41.8,29.81,East,90,3.8,6.4,62,0.00,,,0.00,WUHU216HW,2013-01-23 12:19:00,
2013-01-23 13:24:00,54.6,41.7,29.81,SSE,158,9.8,9.8,62,0.00,,,0.00,WUHU216HW,2013-01-23 12:24:00,
2013-01-23 13:29:00,54.6,41.8,29.82,SSE,164,4.6,9.8,62,0.00,,,0.00,WUHU216HW,2013-01-23 12:29:00,
2013-01-23 13:34:00,54.3,41.9,29.81,ESE,113,8.0,11.8,63,0.00,,,0.00,WUHU216HW,2013-01-23 12:34:00,
2013-01-23 13:39:00,54.1,42.5,29.81,East,90,4.4,11.8,65,0.00,,,0.00,WUHU216HW,2013-01-23 12:39:00,
2013-01-23 13:44:00,54.1,42.5,29.81,SE,135,10.2,10.2,65,0.00,,,0.00,WUHU216HW,2013-01-23 12:44:00,
2013-01-23 13:49:00,54.1,42.9,29.81,SE,135,5.5,10.2,66,0.00,,,0.00,WUHU216HW,2013-01-23 12:49:00,
2013-01-23 13:54:00,54.1,42.9,29.80,SSE,148,3.3,6.9,66,0.00,,,0.00,WUHU216HW,2013-01-23 12:54:00,
2013-01-23 13:59:00,54.1,42.9,29.80,ESE,113,0.0,4.0,66,0.00,,,0.00,WUHU216HW,2013-01-23 12:59:00,
2013-01-23 14:04:00,54.1,43.3,29.79,SSW,196,3.4,11.4,67,0.00,,,0.00,WUHU216HW,2013-01-23 13:04:00,
2013-01-23 14:09:00,54.1,42.9,29.78,SE,135,7.6,11.4,66,0.00,,,0.00,WUHU216HW,2013-01-23 13:09:00,
2013-01-23 14:14:00,54.1,42.9,29.79,SSE,158,3.8,7.6,66,0.00,,,0.00,WUHU216HW,2013-01-23 13:14:00,
2013-01-23 14:19:00,53.9,42.8,29.79,ESE,113,5.3,14.0,66,0.00,,,0.00,WUHU216HW,2013-01-23 13:19:00,
2013-01-23 14:24:00,53.9,42.8,29.78,SSE,158,7.6,14.0,66,0.00,,,0.00,WUHU216HW,2013-01-23 13:24:00,
2013-01-23 14:29:00,53.9,42.8,29.78,SSE,158,7.6,7.6,66,0.00,,,0.00,WUHU216HW,2013-01-23 13:29:00,
2013-01-23 14:52:00,51.9,43.9,29.80,WNW,293,2.0,2.0,74,0.00,,,0.00,WUHU216HW,2013-01-23 13:52:00,
2013-01-23 14:57:00,51.0,43.0,29.82,WNW,293,14.8,15.6,74,0.02,,,0.02,WUHU216HW,2013-01-23 13:57:00,
2013-01-23 15:02:00,47.4,39.5,29.85,NW,315,16.3,16.3,74,0.04,,,0.04,WUHU216HW,2013-01-23 14:02:00,
2013-01-23 15:07:00,45.1,34.8,29.85,NNW,338,10.5,19.2,67,0.04,,,0.04,WUHU216HW,2013-01-23 14:07:00,
2013-01-23 15:12:00,44.2,31.6,29.84,NW,313,1.4,19.2,61,0.06,,,0.06,WUHU216HW,2013-01-23 14:12:00,
2013-01-23 15:17:00,44.0,29.7,29.84,ENE,68,6.2,12.3,57,0.06,,,0.06,WUHU216HW,2013-01-23 14:17:00,
2013-01-23 15:22:00,43.8,28.7,29.85,NE,45,4.9,6.2,55,0.08,,,0.08,WUHU216HW,2013-01-23 14:22:00,
2013-01-23 15:27:00,43.7,27.2,29.84,East,90,9.8,9.8,52,0.06,,,0.08,WUHU216HW,2013-01-23 14:27:00,
2013-01-23 15:32:00,43.5,27.0,29.84,ENE,68,9.3,13.8,51,0.08,,,0.10,WUHU216HW,2013-01-23 14:32:00,
2013-01-23 15:37:00,43.3,26.4,29.84,ENE,68,7.1,13.8,51,0.14,,,0.16,WUHU216HW,2013-01-23 14:37:00,
2013-01-23 15:42:00,43.1,26.2,29.84,ENE,68,9.1,12.3,51,0.18,,,0.20,WUHU216HW,2013-01-23 14:42:00,
2013-01-23 15:47:00,43.1,26.2,29.84,East,81,10.3,12.7,51,0.20,,,0.22,WUHU216HW,2013-01-23 14:47:00,
2013-01-23 15:52:00,43.1,26.7,29.86,ENE,68,8.6,12.7,52,0.24,,,0.26,WUHU216HW,2013-01-23 14:52:00,
2013-01-23 15:57:00,43.3,27.3,29.86,ENE,68,2.9,9.1,53,0.24,,,0.28,WUHU216HW,2013-01-23 14:57:00,
2013-01-23 16:02:00,43.3,27.7,29.86,East,100,3.3,6.7,54,0.28,,,0.32,WUHU216HW,2013-01-23 15:02:00,
2013-01-23 16:07:00,43.3,27.7,29.86,ENE,68,5.3,5.3,54,0.30,,,0.34,WUHU216HW,2013-01-23 15:07:00,
2013-01-23 16:12:00,43.3,29.9,29.85,NE,45,6.2,9.6,58,0.33,,,0.39,WUHU216HW,2013-01-23 15:12:00,
2013-01-23 16:17:00,43.1,29.7,29.84,NE,43,5.3,9.6,59,0.35,,,0.41,WUHU216HW,2013-01-23 15:17:00,
2013-01-23 16:22:00,43.1,29.7,29.84,East,90,6.0,8.5,59,0.37,,,0.45,WUHU216HW,2013-01-23 15:22:00,
2013-01-23 16:27:00,42.9,29.5,29.84,ENE,68,15.4,15.4,59,0.37,,,0.47,WUHU216HW,2013-01-23 15:27:00,
2013-01-23 16:32:00,42.9,30.7,29.84,East,90,14.3,15.4,62,0.39,,,0.51,WUHU216HW,2013-01-23 15:32:00,
2013-01-23 16:37:00,42.4,30.6,29.84,East,90,8.9,14.3,63,0.37,,,0.53,WUHU216HW,2013-01-23 15:37:00,
2013-01-23 16:42:00,42.2,30.1,29.84,ENE,68,9.1,10.5,62,0.37,,,0.57,WUHU216HW,2013-01-23 15:42:00,
2013-01-23 16:47:00,42.0,29.1,29.84,ENE,77,5.0,10.5,60,0.37,,,0.59,WUHU216HW,2013-01-23 15:47:00,
2013-01-23 16:52:00,41.9,28.1,29.83,East,90,8.5,8.5,58,0.37,,,0.63,WUHU216HW,2013-01-23 15:52:00,
2013-01-23 16:57:00,41.9,27.6,29.84,East,81,4.9,9.3,57,0.37,,,0.65,WUHU216HW,2013-01-23 15:57:00,
2013-01-23 17:02:00,41.9,27.6,29.83,ENE,65,6.2,9.3,57,0.33,,,0.65,WUHU216HW,2013-01-23 16:02:00,
2013-01-23 17:07:00,41.9,27.6,29.83,ESE,110,3.7,6.9,57,0.32,,,0.69,WUHU216HW,2013-01-23 16:07:00,
2013-01-23 17:12:00,42.0,26.5,29.82,ESE,104,4.1,6.7,54,0.32,,,0.71,WUHU216HW,2013-01-23 16:12:00,
2013-01-23 17:17:00,42.4,26.4,29.82,East,90,2.0,6.7,53,0.30,,,0.73,WUHU216HW,2013-01-23 16:17:00,
2013-01-23 17:22:00,43.1,25.8,29.81,NE,45,5.4,7.3,50,0.30,,,0.75,WUHU216HW,2013-01-23 16:22:00,
2013-01-23 17:27:00,43.5,27.4,29.79,East,79,5.4,7.3,53,0.30,,,0.79,WUHU216HW,2013-01-23 16:27:00,
2013-01-23 17:32:00,43.8,29.5,29.79,ENE,68,9.8,9.8,57,0.28,,,0.79,WUHU216HW,2013-01-23 16:32:00,
2013-01-23 17:37:00,43.7,32.2,29.79,ENE,58,4.9,11.8,64,0.24,,,0.79,WUHU216HW,2013-01-23 16:37:00,
2013-01-23 17:42:00,44.0,32.4,29.78,North,0,1.5,11.8,64,0.22,,,0.79,WUHU216HW,2013-01-23 16:42:00,
2013-01-23 17:47:00,43.8,31.6,29.78,SW,225,0.0,6.0,62,0.20,,,0.79,WUHU216HW,2013-01-23 16:47:00,
2013-01-23 17:52:00,43.8,31.2,29.78,SW,225,0.6,0.8,61,0.16,,,0.79,WUHU216HW,2013-01-23 16:52:00,
2013-01-23 17:57:00,43.8,30.9,29.78,WSW,248,3.8,3.8,60,0.14,,,0.79,WUHU216HW,2013-01-23 16:57:00,
2013-01-23 18:02:00,43.5,30.1,29.78,South,182,1.9,8.9,59,0.14,,,0.79,WUHU216HW,2013-01-23 17:02:00,
2013-01-23 18:07:00,43.5,29.2,29.78,SW,225,0.0,8.9,57,0.13,,,0.82,WUHU216HW,2013-01-23 17:07:00,
2013-01-23 18:12:00,43.5,29.2,29.78,West,270,2.9,4.2,57,0.11,,,0.82,WUHU216HW,2013-01-23 17:12:00,
2013-01-23 18:17:00,43.5,28.7,29.78,WSW,248,0.0,2.9,56,0.09,,,0.82,WUHU216HW,2013-01-23 17:17:00,
2013-01-23 18:22:00,43.5,28.3,29.77,NE,45,0.8,1.3,55,0.07,,,0.82,WUHU216HW,2013-01-23 17:22:00,
2013-01-23 18:27:00,43.5,27.9,29.77,North,0,0.8,0.8,54,0.03,,,0.82,WUHU216HW,2013-01-23 17:27:00,
2013-01-23 18:32:00,43.5,27.0,29.76,North,0,0.0,1.7,52,0.03,,,0.82,WUHU216HW,2013-01-23 17:32:00,
2013-01-23 18:37:00,43.5,27.0,29.76,WSW,248,2.4,2.4,52,0.03,,,0.82,WUHU216HW,2013-01-23 17:37:00,
2013-01-23 18:42:00,43.5,27.0,29.75,West,270,0.0,2.4,52,0.03,,,0.82,WUHU216HW,2013-01-23 17:42:00,
2013-01-23 18:47:00,43.7,27.2,29.75,WSW,248,0.0,1.3,52,0.03,,,0.82,WUHU216HW,2013-01-23 17:47:00,
2013-01-23 18:52:00,43.5,27.2,29.76,SSW,201,1.2,2.4,52,0.03,,,0.82,WUHU216HW,2013-01-23 17:52:00,
2013-01-23 18:57:00,43.7,27.2,29.75,North,0,0.0,2.4,52,0.03,,,0.82,WUHU216HW,2013-01-23 17:57:00,
2013-01-23 19:02:00,43.5,27.0,29.75,South,180,0.0,0.0,52,0.03,,,0.82,WUHU216HW,2013-01-23 18:02:00,
2013-01-23 19:07:00,43.5,27.0,29.74,SE,145,1.4,1.5,52,0.00,,,0.82,WUHU216HW,2013-01-23 18:07:00,
2013-01-23 19:12:00,43.5,27.0,29.74,SSW,203,0.0,2.0,52,0.00,,,0.82,WUHU216HW,2013-01-23 18:12:00,
2013-01-23 19:17:00,43.5,27.0,29.74,South,180,0.0,2.0,52,0.00,,,0.82,WUHU216HW,2013-01-23 18:17:00,
2013-01-23 19:22:00,43.7,26.7,29.74,South,180,0.0,1.3,51,0.00,,,0.82,WUHU216HW,2013-01-23 18:22:00,
2013-01-23 19:27:00,43.8,27.2,29.74,SSE,158,3.1,3.1,51,0.00,,,0.82,WUHU216HW,2013-01-23 18:27:00,
2013-01-23 19:32:00,44.2,27.2,29.74,SE,135,1.1,3.1,51,0.00,,,0.82,WUHU216HW,2013-01-23 18:32:00,
2013-01-23 19:37:00,44.4,27.8,29.74,NNE,23,2.4,2.6,52,0.00,,,0.82,WUHU216HW,2013-01-23 18:37:00,
2013-01-23 19:42:00,44.4,28.7,29.73,ESE,113,0.0,4.0,54,0.00,,,0.82,WUHU216HW,2013-01-23 18:42:00,
2013-01-23 19:47:00,44.4,28.7,29.73,SE,135,0.0,4.0,54,0.00,,,0.82,WUHU216HW,2013-01-23 18:47:00,
2013-01-23 19:52:00,44.6,28.9,29.73,ENE,68,2.0,2.0,54,0.00,,,0.82,WUHU216HW,2013-01-23 18:52:00,
2013-01-23 19:57:00,44.7,29.1,29.73,West,270,0.0,2.0,54,0.00,,,0.82,WUHU216HW,2013-01-23 18:57:00,
2013-01-23 20:02:00,44.6,28.9,29.73,NNE,23,0.0,0.8,54,0.00,,,0.82,WUHU216HW,2013-01-23 19:02:00,
2013-01-23 20:07:00,44.6,28.9,29.72,NE,45,0.0,0.0,54,0.00,,,0.82,WUHU216HW,2013-01-23 19:07:00,
2013-01-23 20:12:00,44.6,28.9,29.72,WSW,248,1.3,1.3,54,0.00,,,0.82,WUHU216HW,2013-01-23 19:12:00,
2013-01-23 20:17:00,44.7,29.1,29.73,South,180,0.0,1.3,54,0.00,,,0.82,WUHU216HW,2013-01-23 19:17:00,
2013-01-23 20:22:00,44.7,29.1,29.72,SE,135,0.0,0.6,54,0.00,,,0.82,WUHU216HW,2013-01-23 19:22:00,
2013-01-23 20:27:00,44.9,29.2,29.72,SSE,158,1.5,1.5,54,0.00,,,0.82,WUHU216HW,2013-01-23 19:27:00,
2013-01-23 20:32:00,45.1,28.9,29.71,ENE,68,1.3,1.5,53,0.00,,,0.82,WUHU216HW,2013-01-23 19:32:00,
2013-01-23 20:37:00,45.1,29.4,29.71,SSE,158,0.0,2.0,54,0.00,,,0.82,WUHU216HW,2013-01-23 19:37:00,
2013-01-23 20:42:00,45.1,29.4,29.71,SE,135,0.0,2.0,54,0.00,,,0.82,WUHU216HW,2013-01-23 19:42:00,
2013-01-23 20:47:00,45.1,29.4,29.71,ESE,113,0.0,0.0,54,0.00,,,0.82,WUHU216HW,2013-01-23 19:47:00,
2013-01-23 20:52:00,45.1,29.4,29.71,ESE,113,0.0,0.0,54,0.00,,,0.82,WUHU216HW,2013-01-23 19:52:00,
2013-01-23 20:57:00,45.1,29.4,29.71,South,180,0.0,1.3,54,0.00,,,0.82,WUHU216HW,2013-01-23 19:57:00,
2013-01-23 21:02:00,45.3,29.5,29.71,SW,225,0.0,1.3,54,0.00,,,0.82,WUHU216HW,2013-01-23 20:02:00,
2013-01-23 21:07:00,45.3,30.0,29.71,SW,225,3.8,3.8,55,0.00,,,0.82,WUHU216HW,2013-01-23 20:07:00,
2013-01-23 21:12:00,45.1,29.8,29.71,SSW,203,2.4,3.8,55,0.00,,,0.82,WUHU216HW,2013-01-23 20:12:00,
2013-01-23 21:17:00,45.1,29.8,29.71,SW,225,0.0,4.2,55,0.00,,,0.82,WUHU216HW,2013-01-23 20:17:00,
2013-01-23 21:22:00,45.1,29.4,29.70,NE,45,1.1,4.2,54,0.00,,,0.82,WUHU216HW,2013-01-23 20:22:00,
2013-01-23 21:27:00,44.9,29.2,29.70,North,9,1.6,2.0,54,0.00,,,0.82,WUHU216HW,2013-01-23 20:27:00,
2013-01-23 21:32:00,44.7,29.1,29.69,NNW,338,1.4,2.0,54,0.00,,,0.82,WUHU216HW,2013-01-23 20:32:00,
2013-01-23 21:37:00,44.7,28.6,29.68,East,90,0.0,2.6,53,0.00,,,0.82,WUHU216HW,2013-01-23 20:37:00,
2013-01-23 21:42:00,44.6,28.4,29.68,NW,315,0.0,2.6,53,0.00,,,0.82,WUHU216HW,2013-01-23 20:42:00,
2013-01-23 21:47:00,44.4,27.8,29.68,WNW,293,2.0,2.0,52,0.00,,,0.82,WUHU216HW,2013-01-23 20:47:00,
2013-01-23 21:52:00,44.7,27.7,29.68,SSW,203,2.9,2.9,51,0.00,,,0.82,WUHU216HW,2013-01-23 20:52:00,
2013-01-23 21:57:00,44.7,28.2,29.68,ESE,113,0.0,2.9,52,0.00,,,0.82,WUHU216HW,2013-01-23 20:57:00,
2013-01-23 22:02:00,44.7,28.2,29.68,SE,135,0.0,1.5,52,0.00,,,0.82,WUHU216HW,2013-01-23 21:02:00,
2013-01-23 22:07:00,44.9,27.9,29.69,SW,225,5.1,5.1,51,0.00,,,0.82,WUHU216HW,2013-01-23 21:07:00,
2013-01-23 22:12:00,45.1,28.5,29.71,SW,225,8.9,8.9,52,0.00,,,0.82,WUHU216HW,2013-01-23 21:12:00,
2013-01-23 22:17:00,45.8,28.8,29.72,WSW,248,13.4,13.4,51,0.03,,,0.85,WUHU216HW,2013-01-23 21:17:00,
2013-01-23 22:22:00,46.5,30.7,29.72,WSW,248,12.5,13.4,54,0.03,,,0.85,WUHU216HW,2013-01-23 21:22:00,
2013-01-23 22:27:00,46.5,30.7,29.71,South,180,2.0,12.5,54,0.07,,,0.89,WUHU216HW,2013-01-23 21:27:00,
2013-01-23 22:32:00,46.5,30.7,29.71,ESE,113,2.0,6.7,54,0.07,,,0.89,WUHU216HW,2013-01-23 21:32:00,
2013-01-23 22:37:00,46.5,30.7,29.70,SE,135,1.3,3.8,54,0.07,,,0.89,WUHU216HW,2013-01-23 21:37:00,
2013-01-23 22:42:00,46.5,30.7,29.70,ENE,68,1.3,3.8,54,0.07,,,0.89,WUHU216HW,2013-01-23 21:42:00,
2013-01-23 22:47:00,46.5,30.7,29.70,ENE,68,0.0,3.3,54,0.07,,,0.89,WUHU216HW,2013-01-23 21:47:00,
2013-01-23 22:52:00,46.5,31.1,29.70,NNE,24,1.6,3.3,55,0.07,,,0.89,WUHU216HW,2013-01-23 21:52:00,
2013-01-23 22:57:00,46.5,31.1,29.71,NNE,27,3.3,4.4,55,0.07,,,0.89,WUHU216HW,2013-01-23 21:57:00,
2013-01-23 23:02:00,46.2,30.3,29.71,NE,45,2.4,4.4,54,0.07,,,0.89,WUHU216HW,2013-01-23 22:02:00,
2013-01-23 23:07:00,46.2,29.9,29.70,NE,51,4.6,6.7,53,0.07,,,0.89,WUHU216HW,2013-01-23 22:07:00,
2013-01-23 23:12:00,46.2,30.8,29.69,NE,45,4.8,6.7,55,0.06,,,0.89,WUHU216HW,2013-01-23 22:12:00,
2013-01-23 23:17:00,46.2,31.7,29.69,SE,135,0.0,6.4,57,0.04,,,0.89,WUHU216HW,2013-01-23 22:17:00,
2013-01-23 23:22:00,46.2,31.7,29.68,South,180,1.3,3.5,57,0.02,,,0.89,WUHU216HW,2013-01-23 22:22:00,
2013-01-23 23:27:00,46.0,31.5,29.68,NNE,23,1.5,1.5,57,0.00,,,0.89,WUHU216HW,2013-01-23 22:27:00,
2013-01-23 23:32:00,46.0,32.0,29.68,WNW,293,0.0,1.5,58,0.00,,,0.89,WUHU216HW,2013-01-23 22:32:00,
2013-01-23 23:37:00,46.0,32.0,29.67,NNW,338,0.0,2.0,58,0.00,,,0.89,WUHU216HW,2013-01-23 22:37:00,
2013-01-23 23:42:00,45.6,31.7,29.67,South,180,1.7,2.0,58,0.00,,,0.89,WUHU216HW,2013-01-23 22:42:00,
2013-01-23 23:47:00,45.5,31.2,29.67,SW,225,3.8,3.8,57,0.00,,,0.89,WUHU216HW,2013-01-23 22:47:00,
2013-01-23 23:52:00,45.5,30.4,29.67,WSW,248,7.1,7.1,56,0.00,,,0.89,WUHU216HW,2013-01-23 22:52:00,
2013-01-23 23:57:00,45.3,30.0,29.66,North,0,0.0,7.1,55,0.00,,,0.89,WUHU216HW,2013-01-23 22:57:00,